Time;durP1;ratioP1;P1;durP2;ratioP2;P2;SDS_P1;SDS_P2;PMS_P1;PMS_P2;Temp;Humidity;BMP_temperature;BMP_pressure;BME280_temperature;BME280_humidity;BME280_pressure;Samples;Min_cycle;Max_cycle;Signal;HPM_P1;HPM_P2
2021/06/30 00:02:10;;;;;;;2.03;2.03;;;;;;;17.11;62.97;100489.91;6219272;23;20046;-75
2021/06/30 00:04:36;;;;;;;2.20;2.10;;;;;;;17.07;63.23;100499.97;6210292;23;20083;-75
2021/06/30 00:07:04;;;;;;;2.17;2.08;;;;;;;17.03;63.64;100504.47;6217804;23;20048;-76
2021/06/30 00:09:30;;;;;;;1.88;1.77;;;;;;;16.97;63.70;100505.69;6215356;23;20047;-77
2021/06/30 00:11:58;;;;;;;1.67;1.58;;;;;;;16.92;63.89;100504.69;6221024;23;20004;-76
2021/06/30 00:14:24;;;;;;;1.30;1.30;;;;;;;16.91;64.23;100503.03;6213308;23;20012;-76
2021/06/30 00:16:50;;;;;;;1.83;1.83;;;;;;;16.89;64.21;100501.69;6218548;23;20055;-75
2021/06/30 00:19:16;;;;;;;2.20;2.10;;;;;;;16.90;64.49;100501.38;6217121;23;20075;-75
2021/06/30 00:21:42;;;;;;;1.92;1.83;;;;;;;16.91;64.72;100497.50;6218853;23;20016;-75
2021/06/30 00:24:07;;;;;;;2.60;2.47;;;;;;;16.90;64.70;100490.34;6216672;23;20436;-74
2021/06/30 00:26:34;;;;;;;1.98;1.88;;;;;;;16.91;65.01;100502.22;6206271;23;20039;-74
2021/06/30 00:29:01;;;;;;;2.55;2.45;;;;;;;16.91;65.21;100497.50;6219390;23;20061;-75
2021/06/30 00:31:26;;;;;;;3.53;2.90;;;;;;;16.89;65.29;100491.47;6216047;23;20323;-75
2021/06/30 00:33:51;;;;;;;3.13;2.90;;;;;;;16.88;65.31;100502.81;6190611;23;20107;-75
2021/06/30 00:36:17;;;;;;;2.05;1.95;;;;;;;16.83;65.00;100500.13;6217679;23;20012;-73
2021/06/30 00:38:42;;;;;;;2.55;2.42;;;;;;;16.79;65.13;100494.38;6212203;23;20174;-74
2021/06/30 00:41:08;;;;;;;2.40;2.22;;;;;;;16.74;65.38;100487.03;6192062;23;20008;-75
2021/06/30 00:43:33;;;;;;;2.60;2.40;;;;;;;16.67;65.55;100485.81;6212643;23;20086;-75
2021/06/30 00:45:59;;;;;;;2.10;2.00;;;;;;;16.55;65.51;100478.84;6187974;23;20490;-76
2021/06/30 00:48:24;;;;;;;2.60;2.50;;;;;;;16.50;65.97;100484.47;6215821;23;20011;-75
2021/06/30 00:50:50;;;;;;;2.50;2.40;;;;;;;16.37;66.32;100477.00;6211690;23;21025;-73
2021/06/30 00:53:15;;;;;;;2.10;2.00;;;;;;;16.30;66.13;100482.06;6212552;23;20035;-75
2021/06/30 00:55:41;;;;;;;2.58;2.47;;;;;;;16.20;66.20;100483.06;6215033;23;20013;-72
2021/06/30 00:58:07;;;;;;;2.40;2.30;;;;;;;16.12;66.31;100487.34;6215876;23;20016;-74
2021/06/30 01:00:33;;;;;;;2.55;2.45;;;;;;;16.03;66.48;100478.09;6216395;23;20015;-75
2021/06/30 01:02:59;;;;;;;2.50;2.40;;;;;;;15.93;66.87;100472.75;6212132;23;20004;-74
2021/06/30 01:05:24;;;;;;;2.90;2.70;;;;;;;15.87;67.11;100474.78;6213952;23;20011;-73
2021/06/30 01:07:50;;;;;;;2.80;2.70;;;;;;;15.79;67.29;100468.00;6215193;23;20004;-74
2021/06/30 01:10:16;;;;;;;3.05;2.95;;;;;;;15.73;67.51;100468.38;6213747;23;20012;-74
2021/06/30 01:12:41;;;;;;;3.08;2.97;;;;;;;15.67;68.13;100468.44;6208215;23;20446;-73
2021/06/30 01:15:10;;;;;;;3.90;3.05;;;;;;;15.61;68.20;100466.06;6215125;23;20005;-74
2021/06/30 01:17:36;;;;;;;4.32;3.70;;;;;;;15.58;68.04;100466.66;6215542;23;20042;-75
2021/06/30 01:20:04;;;;;;;3.22;3.13;;;;;;;15.49;68.56;100456.31;6218086;23;20009;-74
2021/06/30 01:22:29;;;;;;;3.22;3.13;;;;;;;15.44;68.83;100456.38;6214499;23;20079;-75
2021/06/30 01:24:55;;;;;;;4.82;3.47;;;;;;;15.40;68.39;100460.03;6218247;23;20383;-75
2021/06/30 01:27:22;;;;;;;4.10;3.90;;;;;;;15.36;68.75;100465.31;6214513;23;20387;-73
2021/06/30 01:29:47;;;;;;;3.75;3.65;;;;;;;15.31;69.76;100462.63;6213145;23;20339;-72
2021/06/30 01:32:13;;;;;;;3.83;3.63;;;;;;;15.27;69.44;100467.09;6214921;23;20036;-74
2021/06/30 01:34:39;;;;;;;4.05;3.85;;;;;;;15.21;70.10;100462.78;6217242;23;20021;-75
2021/06/30 01:37:05;;;;;;;4.32;4.03;;;;;;;15.14;70.17;100463.97;6216631;23;20473;-76
2021/06/30 01:39:31;;;;;;;4.22;4.03;;;;;;;15.12;70.11;100459.88;6191590;23;20111;-75
2021/06/30 01:41:56;;;;;;;4.05;3.85;;;;;;;15.09;69.84;100453.00;6216749;23;20024;-76
2021/06/30 01:44:22;;;;;;;4.28;4.07;;;;;;;15.09;70.68;100455.75;6209371;23;20011;-75
2021/06/30 01:46:48;;;;;;;3.60;3.40;;;;;;;15.08;70.27;100459.63;6255240;23;20047;-75
2021/06/30 01:49:14;;;;;;;3.72;3.58;;;;;;;15.10;70.11;100457.41;6223110;23;20088;-77
2021/06/30 01:51:39;;;;;;;5.72;5.38;;;;;;;15.13;70.79;100459.56;6220971;23;20039;-75
2021/06/30 01:54:11;;;;;;;5.65;4.82;;;;;;;15.16;70.41;100456.22;6217510;23;20032;-77
2021/06/30 01:56:37;;;;;;;5.03;4.82;;;;;;;15.24;70.70;100453.91;6192816;23;20092;-76
2021/06/30 01:59:05;;;;;;;3.63;3.53;;;;;;;15.29;70.46;100462.94;6241851;23;20004;-77
2021/06/30 02:01:30;;;;;;;4.63;4.43;;;;;;;15.31;70.65;100454.38;6243805;23;20023;-78
2021/06/30 02:03:57;;;;;;;4.03;3.70;;;;;;;15.38;70.27;100463.09;6214351;23;20468;-76
2021/06/30 02:06:24;;;;;;;4.22;3.92;;;;;;;15.38;70.87;100457.56;6220063;23;20118;-76
2021/06/30 02:08:50;;;;;;;4.30;4.10;;;;;;;15.37;70.51;100466.94;6217795;23;20743;-76
2021/06/30 02:11:16;;;;;;;4.72;4.43;;;;;;;15.34;70.53;100459.28;6217336;23;20046;-76
2021/06/30 02:13:42;;;;;;;4.72;3.83;;;;;;;15.29;70.73;100462.13;6215426;23;20004;-75
2021/06/30 02:16:08;;;;;;;4.18;3.90;;;;;;;15.21;70.45;100462.78;6214100;23;20015;-74
2021/06/30 02:18:33;;;;;;;3.90;3.60;;;;;;;15.15;70.50;100462.03;6215395;23;20392;-74
2021/06/30 02:20:59;;;;;;;4.75;4.50;;;;;;;15.08;70.58;100459.63;6210713;23;20013;-74
2021/06/30 02:23:24;;;;;;;5.00;4.60;;;;;;;15.01;70.98;100459.19;6214499;23;20359;-74
2021/06/30 02:25:50;;;;;;;3.53;3.42;;;;;;;14.95;71.05;100466.69;6215709;23;20015;-75
2021/06/30 02:28:15;;;;;;;3.92;3.00;;;;;;;14.88;70.88;100454.38;6187116;23;20104;-76
2021/06/30 02:30:41;;;;;;;3.78;3.58;;;;;;;14.85;70.82;100469.56;6213614;23;20095;-74
2021/06/30 02:33:06;;;;;;;3.22;3.13;;;;;;;14.82;71.51;100465.47;6216387;23;20079;-74
2021/06/30 02:35:32;;;;;;;4.40;4.20;;;;;;;14.82;71.80;100467.38;6212584;23;20016;-75
2021/06/30 02:37:58;;;;;;;4.65;4.35;;;;;;;14.84;71.67;100462.41;6218654;23;20023;-73
2021/06/30 02:40:25;;;;;;;4.80;4.60;;;;;;;14.91;71.69;100464.78;6197053;23;20069;-73
2021/06/30 02:42:52;;;;;;;4.25;3.95;;;;;;;14.98;71.92;100473.53;6200106;23;20336;-74
2021/06/30 02:45:19;;;;;;;4.65;4.35;;;;;;;15.05;71.78;100468.47;6244610;23;20035;-75
2021/06/30 02:47:47;;;;;;;4.57;4.28;;;;;;;15.07;71.77;100468.19;6226534;23;20062;-74
2021/06/30 02:50:15;;;;;;;4.90;4.18;;;;;;;15.14;71.37;100472.22;6219225;23;20492;-76
2021/06/30 02:52:42;;;;;;;4.63;4.32;;;;;;;15.16;71.46;100472.75;6217034;23;20062;-75
2021/06/30 02:55:08;;;;;;;3.83;3.63;;;;;;;15.15;71.14;100465.59;6217023;23;20015;-75
2021/06/30 02:57:34;;;;;;;3.80;3.60;;;;;;;15.12;71.40;100466.19;6211273;23;20009;-75
2021/06/30 03:00:00;;;;;;;4.32;4.13;;;;;;;15.09;71.13;100461.28;6216528;23;20015;-75
2021/06/30 03:02:25;;;;;;;4.18;3.97;;;;;;;15.06;71.32;100467.38;6190179;23;20005;-74
2021/06/30 03:04:51;;;;;;;2.95;2.85;;;;;;;15.07;71.46;100474.53;6216810;23;19997;-75
2021/06/30 03:07:17;;;;;;;3.17;3.00;;;;;;;15.01;71.19;100467.44;6216803;23;20011;-74
2021/06/30 03:09:42;;;;;;;2.92;2.72;;;;;;;15.05;71.47;100476.75;6211362;23;20325;-72
2021/06/30 03:12:08;;;;;;;3.47;3.28;;;;;;;15.07;71.66;100491.06;6207498;23;20041;-73
2021/06/30 03:14:34;;;;;;;4.47;4.13;;;;;;;15.09;71.67;100480.53;6216929;23;20424;-75
2021/06/30 03:16:59;;;;;;;5.43;5.05;;;;;;;15.13;71.39;100478.84;6203271;23;20127;-73
2021/06/30 03:19:24;;;;;;;5.55;5.25;;;;;;;15.13;71.49;100473.34;6218872;23;20015;-75
2021/06/30 03:21:50;;;;;;;4.45;4.25;;;;;;;15.16;71.45;100483.75;6216821;23;20087;-75
2021/06/30 03:24:16;;;;;;;3.50;3.30;;;;;;;15.15;71.29;100481.31;6217335;23;20016;-75
2021/06/30 03:26:41;;;;;;;3.78;3.63;;;;;;;15.10;71.61;100473.94;6214439;23;20005;-74
2021/06/30 03:29:07;;;;;;;3.63;3.42;;;;;;;15.12;71.44;100481.91;6157982;23;20012;-75
2021/06/30 03:31:33;;;;;;;2.47;2.38;;;;;;;15.10;70.88;100473.94;6218784;23;20004;-75
2021/06/30 03:33:59;;;;;;;4.45;3.80;;;;;;;15.08;71.48;100470.63;6217579;23;20751;-76
2021/06/30 03:36:24;;;;;;;3.20;3.08;;;;;;;15.04;71.46;100469.63;6218143;23;20005;-76
2021/06/30 03:38:50;;;;;;;4.15;3.95;;;;;;;15.05;71.14;100476.75;6191684;23;20005;-75
2021/06/30 03:41:15;;;;;;;4.07;3.85;;;;;;;15.04;71.26;100474.28;6217173;23;20013;-74
2021/06/30 03:43:41;;;;;;;3.50;3.40;;;;;;;15.02;71.47;100471.81;6191594;23;20411;-76
2021/06/30 03:46:10;;;;;;;5.40;5.00;;;;;;;14.97;71.88;100471.91;6216632;23;20013;-75
2021/06/30 03:48:36;;;;;;;7.50;5.93;;;;;;;14.93;71.55;100468.09;6213827;23;20009;-72
2021/06/30 03:51:03;;;;;;;5.43;5.22;;;;;;;14.82;71.63;100462.72;6205770;23;20012;-74
2021/06/30 03:53:28;;;;;;;5.88;5.55;;;;;;;14.79;71.83;100463.31;6212028;23;19997;-72
2021/06/30 03:55:53;;;;;;;5.75;5.40;;;;;;;14.77;71.41;100461.94;6185656;23;20018;-73
2021/06/30 03:58:19;;;;;;;6.72;5.90;;;;;;;14.76;71.96;100463.91;6208705;23;20083;-72
2021/06/30 04:00:44;;;;;;;5.03;4.82;;;;;;;14.74;71.73;100468.84;6209776;23;20005;-73
2021/06/30 04:03:10;;;;;;;5.75;5.35;;;;;;;14.68;71.87;100472.78;6212880;23;20000;-73
2021/06/30 04:05:36;;;;;;;5.40;5.10;;;;;;;14.65;72.05;100467.88;6217937;23;20005;-72
2021/06/30 04:08:06;;;;;;;6.22;5.75;;;;;;;14.60;71.81;100467.88;6215819;23;20313;-73
2021/06/30 04:10:32;;;;;;;5.20;4.88;;;;;;;14.55;72.10;100467.94;6219478;23;20009;-72
2021/06/30 04:12:57;;;;;;;5.60;5.30;;;;;;;14.51;71.89;100472.38;6205374;23;20451;-75
2021/06/30 04:15:23;;;;;;;6.60;6.20;;;;;;;14.53;72.66;100470.16;6217011;23;20139;-75
2021/06/30 04:17:48;;;;;;;6.10;5.70;;;;;;;14.48;72.26;100474.63;6218313;23;20495;-76
2021/06/30 04:20:14;;;;;;;5.60;5.30;;;;;;;14.52;72.21;100474.03;6192777;23;20390;-76
2021/06/30 04:22:39;;;;;;;6.68;6.32;;;;;;;14.53;72.64;100471.00;6214499;23;20000;-76
2021/06/30 04:25:06;;;;;;;5.80;5.50;;;;;;;14.59;72.64;100478.06;6216390;23;20431;-75
2021/06/30 04:27:32;;;;;;;4.85;4.57;;;;;;;14.63;72.43;100465.41;6217472;23;20087;-74
2021/06/30 04:29:58;;;;;;;4.75;4.45;;;;;;;14.75;72.56;100477.94;6215520;23;20016;-76
2021/06/30 04:32:24;;;;;;;4.80;4.38;;;;;;;14.77;72.44;100468.25;6216762;23;20013;-74
2021/06/30 04:34:50;;;;;;;3.70;3.35;;;;;;;14.79;72.67;100463.31;6215270;23;20052;-77
2021/06/30 04:37:15;;;;;;;5.32;4.93;;;;;;;14.94;72.74;100476.06;6216243;23;20031;-77
2021/06/30 04:39:41;;;;;;;5.50;5.20;;;;;;;15.03;72.48;100484.50;6213382;23;20436;-74
2021/06/30 04:42:06;;;;;;;4.50;4.30;;;;;;;15.08;72.46;100487.16;6216706;23;20059;-74
2021/06/30 04:44:32;;;;;;;5.03;4.72;;;;;;;15.11;72.26;100492.09;6214832;23;20030;-77
2021/06/30 04:46:57;;;;;;;5.00;4.80;;;;;;;15.11;72.13;100491.25;6221350;23;20008;-77
2021/06/30 04:49:23;;;;;;;6.05;5.63;;;;;;;15.11;71.86;100491.25;6222030;23;20016;-78
2021/06/30 04:51:48;;;;;;;6.10;5.72;;;;;;;15.09;72.34;100493.50;6189783;23;20445;-77
2021/06/30 04:54:14;;;;;;;4.95;4.72;;;;;;;15.09;71.66;100486.06;6218992;23;20375;-77
2021/06/30 04:56:40;;;;;;;6.30;5.88;;;;;;;15.11;72.09;100481.09;6218328;23;20004;-78
2021/06/30 04:59:06;;;;;;;7.65;7.15;;;;;;;15.14;71.93;100480.50;6218793;23;20008;-78
2021/06/30 05:01:32;;;;;;;7.95;7.35;;;;;;;15.17;71.90;100482.66;6217550;23;20010;-77
2021/06/30 05:03:58;;;;;;;7.32;6.70;;;;;;;15.21;71.48;100490.31;6217716;23;20008;-77
2021/06/30 05:06:23;;;;;;;8.68;7.63;;;;;;;15.25;71.99;100480.38;6192967;23;20020;-76
2021/06/30 05:08:48;;;;;;;5.80;5.45;;;;;;;15.27;72.21;100478.94;6192356;23;20009;-77
2021/06/30 05:11:14;;;;;;;7.22;6.72;;;;;;;15.33;71.78;100486.03;6217384;23;20005;-77
2021/06/30 05:13:39;;;;;;;4.25;3.95;;;;;;;15.45;72.03;100490.25;6195127;23;20009;-76
2021/06/30 05:16:05;;;;;;;2.40;2.30;;;;;;;15.51;71.61;100486.34;6218458;23;20005;-76
2021/06/30 05:18:30;;;;;;;3.42;3.33;;;;;;;15.63;71.58;100491.41;6220712;23;20008;-76
2021/06/30 05:20:56;;;;;;;2.88;2.78;;;;;;;15.75;71.40;100500.03;6218611;23;20012;-77
2021/06/30 05:23:21;;;;;;;3.78;3.15;;;;;;;15.82;71.00;100494.97;6218636;23;20008;-76
2021/06/30 05:25:47;;;;;;;2.75;2.65;;;;;;;15.90;70.96;100495.44;6193885;23;20008;-75
2021/06/30 05:28:12;;;;;;;1.52;1.50;;;;;;;15.94;70.79;100491.75;6212966;23;20004;-74
2021/06/30 05:30:37;;;;;;;1.70;1.65;;;;;;;16.01;70.58;100496.91;6215847;23;20367;-74
2021/06/30 05:33:03;;;;;;;1.90;1.80;;;;;;;16.04;70.47;100485.25;6210910;23;20012;-75
2021/06/30 05:35:29;;;;;;;1.45;1.45;;;;;;;16.06;70.00;100488.53;6214123;23;20017;-74
2021/06/30 05:37:55;;;;;;;1.80;1.73;;;;;;;16.07;70.16;100490.19;6218179;23;20005;-76
2021/06/30 05:40:20;;;;;;;2.10;2.00;;;;;;;16.05;70.28;100490.47;6218011;23;20107;-76
2021/06/30 05:42:46;;;;;;;2.00;1.90;;;;;;;16.12;69.84;100492.03;6213263;23;20328;-79
2021/06/30 05:45:16;;;;;;;1.55;1.55;;;;;;;16.14;69.76;100495.31;6216773;23;20386;-78
2021/06/30 05:47:45;;;;;;;3.03;2.92;;;;;;;16.22;69.89;100495.44;6221283;23;20009;-78
2021/06/30 05:50:12;;;;;;;3.80;3.28;;;;;;;16.26;69.65;100494.84;6217303;23;20008;-79
2021/06/30 05:52:38;;;;;;;3.53;3.33;;;;;;;16.28;69.43;100493.41;6221816;23;20005;-78
2021/06/30 05:55:06;;;;;;;3.63;3.42;;;;;;;16.35;69.60;100496.59;6197265;23;20343;-79
2021/06/30 05:57:31;;;;;;;4.28;3.97;;;;;;;16.40;69.43;100488.22;6219471;23;20316;-79
2021/06/30 05:59:57;;;;;;;4.65;4.45;;;;;;;16.47;69.41;100481.47;6219355;23;20012;-78
2021/06/30 06:02:22;;;;;;;5.32;4.00;;;;;;;16.52;69.10;100487.72;6219258;23;20001;-73
2021/06/30 06:04:47;;;;;;;4.53;4.32;;;;;;;16.63;69.00;100490.28;6208856;23;20012;-72
2021/06/30 06:07:13;;;;;;;4.63;4.43;;;;;;;16.69;68.76;100486.31;6214284;23;20083;-74
2021/06/30 06:09:38;;;;;;;4.97;4.07;;;;;;;16.79;68.40;100488.88;6212141;23;20478;-73
2021/06/30 06:12:04;;;;;;;6.13;5.78;;;;;;;16.86;68.08;100489.28;6183446;23;20004;-73
2021/06/30 06:14:29;;;;;;;5.22;4.95;;;;;;;16.96;68.08;100498.53;6214672;23;20688;-74
2021/06/30 06:16:56;;;;;;;7.13;6.38;;;;;;;17.03;67.80;100485.13;6218223;23;20039;-76
2021/06/30 06:19:22;;;;;;;5.28;5.07;;;;;;;17.13;67.84;100490.44;6219610;23;20491;-76
2021/06/30 06:21:48;;;;;;;5.55;5.20;;;;;;;17.20;67.76;100498.28;6219773;23;20015;-78
2021/06/30 06:24:14;;;;;;;5.53;5.22;;;;;;;17.27;67.48;100499.53;6218579;23;20004;-77
2021/06/30 06:26:40;;;;;;;3.63;3.53;;;;;;;17.31;67.22;100490.63;6217827;23;20019;-76
2021/06/30 06:29:05;;;;;;;3.70;3.50;;;;;;;17.42;66.94;100494.78;6216726;23;20016;-75
2021/06/30 06:31:31;;;;;;;2.92;2.83;;;;;;;17.55;66.74;100488.41;6168206;23;20016;-79
2021/06/30 06:33:56;;;;;;;5.10;4.80;;;;;;;17.67;66.60;100484.25;6220692;23;20048;-78
2021/06/30 06:36:22;;;;;;;4.82;4.63;;;;;;;17.76;66.45;100482.41;6221529;23;20039;-77
2021/06/30 06:38:48;;;;;;;6.10;5.53;;;;;;;17.87;66.15;100489.34;6218903;23;20025;-79
2021/06/30 06:41:14;;;;;;;5.50;5.13;;;;;;;17.93;65.82;100493.63;6221190;23;20023;-78
2021/06/30 06:43:42;;;;;;;4.63;4.43;;;;;;;18.05;65.29;100497.78;6219395;23;20003;-78
2021/06/30 06:46:09;;;;;;;5.95;5.47;;;;;;;18.16;65.79;100501.91;6216858;23;20005;-78
2021/06/30 06:48:35;;;;;;;4.80;4.50;;;;;;;18.27;65.26;100497.75;6221137;23;20009;-77
2021/06/30 06:51:01;;;;;;;4.60;4.38;;;;;;;18.42;65.14;100504.03;6217144;23;20420;-78
2021/06/30 06:53:26;;;;;;;5.40;5.10;;;;;;;18.54;64.66;100507.03;6217181;23;20004;-78
2021/06/30 06:56:02;;;;;;;5.57;5.28;;;;;;;18.66;64.06;100503.66;6215239;23;20016;-77
2021/06/30 06:58:28;;;;;;;7.38;6.88;;;;;;;18.73;64.04;100511.53;6191655;23;20071;-75
2021/06/30 07:00:53;;;;;;;5.47;5.22;;;;;;;18.83;63.47;100503.72;6216825;23;20374;-76
2021/06/30 07:03:18;;;;;;;5.80;4.55;;;;;;;18.95;63.19;100505.94;6216558;23;20012;-78
2021/06/30 07:05:44;;;;;;;5.50;5.25;;;;;;;19.01;62.84;100504.66;6206983;23;20383;-73
2021/06/30 07:08:10;;;;;;;5.68;5.47;;;;;;;19.06;62.86;100508.44;6194725;23;20004;-79
2021/06/30 07:10:51;;;;;;;;;;;;;;;;;;;;;
2021/06/30 07:13:24;;;;;;;5.22;4.82;;;;;;;19.28;62.85;100513.84;6216584;23;20075;-81
2021/06/30 07:15:49;;;;;;;4.60;4.40;;;;;;;19.43;62.30;100514.53;6219861;23;20028;-76
2021/06/30 07:18:15;;;;;;;4.38;4.18;;;;;;;19.50;61.93;100512.09;6213925;23;20031;-78
2021/06/30 07:20:42;;;;;;;4.57;4.38;;;;;;;19.68;62.33;100516.53;6217152;23;20083;-77
2021/06/30 07:23:08;;;;;;;6.78;6.38;;;;;;;19.78;61.33;100525.66;6217952;23;20419;-77
2021/06/30 07:25:34;;;;;;;7.18;6.78;;;;;;;19.74;60.61;100525.50;6219221;23;20008;-76
2021/06/30 07:28:00;;;;;;;4.18;3.97;;;;;;;19.77;60.90;100524.03;6191977;23;20008;-77
2021/06/30 07:30:25;;;;;;;5.50;5.03;;;;;;;19.91;61.02;100523.91;6192642;23;20092;-76
2021/06/30 07:32:51;;;;;;;5.65;5.40;;;;;;;20.03;60.66;100527.66;6216536;23;20443;-76
2021/06/30 07:35:16;;;;;;;4.40;4.10;;;;;;;20.18;60.67;100533.84;6222261;23;20009;-78
2021/06/30 07:37:42;;;;;;;4.05;3.85;;;;;;;20.35;60.19;100536.59;6194580;23;20423;-77
2021/06/30 07:40:08;;;;;;;5.13;4.82;;;;;;;20.50;59.27;100534.44;6217816;23;20013;-77
2021/06/30 07:42:33;;;;;;;5.10;4.80;;;;;;;20.61;58.49;100541.28;6218812;23;20013;-74
2021/06/30 07:44:59;;;;;;;4.78;4.47;;;;;;;20.68;58.29;100536.06;6218871;23;20328;-76
2021/06/30 07:47:24;;;;;;;3.55;3.35;;;;;;;20.75;58.44;100541.91;6215013;23;20015;-77
2021/06/30 07:50:35;;;;;;;4.05;3.85;;;;;;;20.99;58.54;100540.50;6214247;23;20386;-77
2021/06/30 07:52:58;;;;;;;2.55;2.45;;;;;;;21.01;58.06;100543.78;6184864;23;19997;-78
2021/06/30 07:55:24;;;;;;;2.80;2.70;;;;;;;21.16;58.09;100533.22;6191531;23;20080;-77
2021/06/30 07:57:50;;;;;;;3.13;3.03;;;;;;;21.35;57.58;100544.75;6188398;23;20005;-75
2021/06/30 08:00:15;;;;;;;3.78;3.58;;;;;;;21.58;57.06;100544.47;6185240;23;20016;-76
2021/06/30 08:02:41;;;;;;;3.63;3.53;;;;;;;21.83;56.71;100558.53;6157758;23;20013;-73
2021/06/30 08:05:08;;;;;;;3.40;3.30;;;;;;;22.02;56.24;100558.03;6186314;23;20001;-74
2021/06/30 08:07:34;;;;;;;3.42;3.17;;;;;;;22.24;56.08;100559.66;6183589;23;20025;-73
2021/06/30 08:10:00;;;;;;;2.40;2.30;;;;;;;22.40;55.68;100557.91;6190402;23;20007;-75
2021/06/30 08:12:28;;;;;;;3.78;3.58;;;;;;;22.64;55.40;100570.28;6187550;23;20029;-76
2021/06/30 08:14:56;;;;;;;2.53;2.42;;;;;;;22.83;55.19;100569.72;6163240;23;20009;-75
2021/06/30 08:17:22;;;;;;;3.47;3.28;;;;;;;22.88;53.92;100565.91;6189695;23;20004;-76
2021/06/30 08:19:47;;;;;;;3.47;2.42;;;;;;;22.91;53.48;100565.19;6185128;23;20012;-77
2021/06/30 08:22:13;;;;;;;5.03;3.00;;;;;;;22.92;53.60;100567.63;6211992;23;20013;-76
2021/06/30 08:24:40;;;;;;;3.22;3.13;;;;;;;22.82;52.96;100562.50;6189657;23;20013;-76
2021/06/30 08:27:08;;;;;;;3.63;3.42;;;;;;;22.77;52.92;100566.34;6191259;23;20043;-76
2021/06/30 08:29:34;;;;;;;3.08;2.90;;;;;;;22.73;53.12;100559.03;6187092;23;20335;-76
2021/06/30 08:32:00;;;;;;;1.98;1.88;;;;;;;22.74;53.54;100550.31;6188886;23;20001;-76
2021/06/30 08:34:26;;;;;;;1.80;1.70;;;;;;;22.97;53.60;100570.22;6184944;23;20095;-75
2021/06/30 08:36:57;;;;;;;2.10;2.00;;;;;;;23.08;52.87;100559.41;6159329;23;20012;-75
2021/06/30 08:39:23;;;;;;;3.78;2.00;;;;;;;23.22;52.13;100564.69;6190222;23;20015;-76
2021/06/30 08:41:49;;;;;;;3.00;2.80;;;;;;;23.24;51.83;100567.94;6189212;23;20435;-76
2021/06/30 08:44:14;;;;;;;1.80;1.70;;;;;;;23.29;51.80;100564.91;6184511;23;20009;-75
2021/06/30 08:46:40;;;;;;;2.42;2.33;;;;;;;23.29;51.30;100559.34;6191391;23;20013;-76
2021/06/30 08:49:09;;;;;;;2.33;2.15;;;;;;;23.39;51.35;100558.03;6183243;23;20005;-75
2021/06/30 08:51:37;;;;;;;1.33;1.23;;;;;;;23.55;51.70;100562.91;6188971;23;20574;-75
2021/06/30 08:54:08;;;;;;;1.25;1.25;;;;;;;23.74;51.31;100563.09;6185573;23;20009;-76
2021/06/30 08:56:34;;;;;;;2.20;2.10;;;;;;;23.86;50.77;100565.09;6188863;23;20017;-76
2021/06/30 08:59:01;;;;;;;1.67;1.58;;;;;;;23.98;50.69;100572.63;6189991;23;20008;-75
2021/06/30 09:01:28;;;;;;;2.80;2.70;;;;;;;24.00;50.17;100553.53;6188477;23;20039;-76
2021/06/30 09:03:57;;;;;;;5.80;3.00;;;;;;;24.16;49.72;100557.19;6189978;23;20009;-76
2021/06/30 09:06:24;;;;;;;1.98;1.88;;;;;;;24.31;50.00;100554.78;6189749;23;20009;-75
2021/06/30 09:08:57;;;;;;;3.22;3.03;;;;;;;24.66;49.08;100565.34;6188060;23;20005;-77
2021/06/30 09:11:28;;;;;;;2.10;2.00;;;;;;;25.02;49.07;100557.91;6187845;23;20035;-76
2021/06/30 09:14:36;;;;;;;2.22;2.13;;;;;;;25.55;48.35;100564.00;6191868;23;19997;-74
2021/06/30 09:20:27;;;;;;;3.15;3.05;;;;;;;26.01;45.97;100571.81;6113066;23;20005;-78
2021/06/30 09:22:57;;;;;;;3.03;2.92;;;;;;;25.98;44.72;100568.91;6184293;23;20005;-79
2021/06/30 09:26:14;;;;;;;;;;;;;;;;;;;;;
2021/06/30 09:29:01;;;;;;;;;;;;;;;;;;;;;
2021/06/30 09:32:15;;;;;;;9.68;3.45;;;;;;;26.57;44.44;100578.91;6191113;23;19947;-80
2021/06/30 09:34:40;;;;;;;3.70;3.10;;;;;;;26.58;43.21;100585.38;6189740;23;20032;-79
2021/06/30 09:37:10;;;;;;;3.28;3.08;;;;;;;26.48;43.51;100567.94;6190477;23;20009;-76
2021/06/30 09:39:56;;;;;;;3.92;3.53;;;;;;;26.59;42.52;100582.19;6190569;23;20005;-77
2021/06/30 09:42:34;;;;;;;6.30;4.07;;;;;;;26.56;42.52;100577.31;6187711;23;20082;-77
2021/06/30 09:45:20;;;;;;;2.65;2.45;;;;;;;26.68;42.86;100576.38;6191014;23;20008;-77
2021/06/30 09:47:53;;;;;;;3.42;3.22;;;;;;;26.74;43.31;100580.47;6189263;23;20428;-78
2021/06/30 09:50:45;;;;;;;1.75;1.65;;;;;;;27.06;43.86;100576.59;6190696;23;20387;-77
2021/06/30 09:53:30;;;;;;;2.85;2.65;;;;;;;27.17;42.93;100571.97;6188585;23;20282;-78
2021/06/30 09:56:33;;;;;;;3.20;3.10;;;;;;;27.27;42.00;100576.94;6188510;23;20088;-77
2021/06/30 09:59:16;;;;;;;2.70;2.50;;;;;;;27.40;41.72;100574.78;6181894;23;20024;-79
2021/06/30 10:02:00;;;;;;;3.33;2.58;;;;;;;27.35;41.11;100572.31;6189691;23;20083;-80
2021/06/30 10:04:40;;;;;;;;;;;;;;;;;;;;;
2021/06/30 10:07:28;;;;;;;;;;;;;;;;;;;;;
2021/06/30 10:10:18;;;;;;;3.20;2.80;;;;;;;27.72;40.18;100579.28;6190734;23;20036;-79
2021/06/30 10:12:49;;;;;;;2.83;2.63;;;;;;;27.51;40.10;100553.28;6188800;23;20020;-78
2021/06/30 10:15:24;;;;;;;;;;;;;;;;;;;;;
2021/06/30 10:18:10;;;;;;;2.60;2.50;;;;;;;28.47;40.41;100565.34;6188126;23;20037;-78
2021/06/30 10:20:44;;;;;;;2.90;2.35;;;;;;;28.78;38.63;100552.03;6165394;23;20335;-78
2021/06/30 10:23:10;;;;;;;2.33;2.20;;;;;;;28.87;37.48;100580.66;6164684;23;20008;-77
2021/06/30 10:25:37;;;;;;;2.67;2.58;;;;;;;29.06;38.81;100571.19;6214858;23;20004;-77
2021/06/30 10:28:03;;;;;;;2.08;1.65;;;;;;;29.50;38.52;100575.94;6163312;23;20126;-80
2021/06/30 10:30:39;;;;;;;;;;;;;;;;;;;;;
2021/06/30 10:33:32;;;;;;;2.60;2.50;;;;;;;30.32;37.58;100576.78;6185188;23;20145;-80
2021/06/30 10:36:05;;;;;;;2.65;2.13;;;;;;;30.68;36.48;100582.50;6193869;23;20017;-80
2021/06/30 10:39:01;;;;;;;4.28;2.53;;;;;;;32.12;35.31;100577.56;6143490;23;20017;-81
2021/06/30 10:41:52;;;;;;;;;;;;;;;33.14;34.44;100584.19;6195186;23;20004;-81
2021/06/30 10:44:25;;;;;;;1.13;1.13;;;;;;;32.75;34.66;100568.31;6168382;23;19904;-80
2021/06/30 10:46:53;;;;;;;1.30;1.20;;;;;;;33.56;35.13;100575.75;6191158;23;20068;-80
2021/06/30 10:49:42;;;;;;;1.63;1.52;;;;;;;34.94;34.61;100576.41;6193502;23;20011;-81
2021/06/30 10:52:35;;;;;;;1.70;1.50;;;;;;;36.71;31.94;100590.00;6193300;23;20001;-81
2021/06/30 10:55:11;;;;;;;;;;;;;;;;;;;;;
2021/06/30 10:58:14;;;;;;;1.35;1.35;;;;;;;39.14;28.38;100590.53;6195422;23;20016;-83
2021/06/30 11:04:12;;;;;;;1.65;1.27;;;;;;;39.12;25.48;100587.31;6188841;23;20501;-82
2021/06/30 11:06:38;;;;;;;3.25;1.23;;;;;;;37.80;24.83;100582.38;6194702;23;20013;-82
2021/06/30 11:09:31;;;;;;;1.00;1.00;;;;;;;36.80;25.66;100580.84;6196936;23;20024;-82
2021/06/30 11:12:15;;;;;;;2.30;1.85;;;;;;;36.25;25.32;100580.47;6162268;23;20011;-82
2021/06/30 11:14:56;;;;;;;1.70;1.57;;;;;;;35.38;25.54;100564.28;6192815;23;20005;-81
2021/06/30 11:17:52;;;;;;;;;;;;;;;;;;;;;
2021/06/30 11:20:49;;;;;;;2.75;1.30;;;;;;;36.45;26.95;100586.94;6192347;23;20032;-81
2021/06/30 11:23:24;;;;;;;1.77;1.67;;;;;;;36.71;25.41;100589.19;6192963;23;20305;-81
2021/06/30 11:25:55;;;;;;;1.65;1.55;;;;;;;36.30;24.91;100595.00;6167608;23;20024;-82
2021/06/30 11:28:38;;;;;;;2.55;1.45;;;;;;;36.68;25.30;100588.03;6169548;23;20001;-81
2021/06/30 11:31:28;;;;;;;1.10;1.10;;;;;;;37.39;25.81;100576.13;6168601;23;20020;-81
2021/06/30 11:34:12;;;;;;;1.75;1.65;;;;;;;37.17;24.17;100584.44;6193535;23;20316;-81
2021/06/30 11:36:46;;;;;;;1.53;1.43;;;;;;;37.23;24.65;100568.38;6194010;23;20001;-82
2021/06/30 11:39:18;;;;;;;2.42;1.48;;;;;;;38.04;24.39;100569.41;6197366;23;20247;-82
2021/06/30 11:41:52;;;;;;;1.00;1.00;;;;;;;38.58;23.69;100569.81;6218968;23;20020;-81
2021/06/30 11:44:46;;;;;;;;;;;;;;;;;;;;;
2021/06/30 11:47:17;;;;;;;1.05;1.05;;;;;;;39.67;23.07;100567.78;6194323;23;20036;-81
2021/06/30 11:49:50;;;;;;;0.90;0.90;;;;;;;40.44;22.38;100587.38;6195441;23;20001;-82
2021/06/30 11:52:25;;;;;;;0.90;0.90;;;;;;;41.00;22.30;100570.41;6169766;23;20001;-81
2021/06/30 11:55:06;;;;;;;0.70;0.70;;;;;;;41.98;21.36;100572.66;6194602;23;20005;-81
2021/06/30 11:57:32;;;;;;;1.33;0.85;;;;;;;42.08;21.19;100571.34;6215703;23;20009;-81